createdAt,value
2019-03-06T00:02:23.380Z,7.20
2019-03-06T00:04:52.413Z,7.20
2019-03-06T00:07:21.175Z,7.20
2019-03-06T00:09:50.039Z,7.10
2019-03-06T00:12:19.008Z,7.10
2019-03-06T00:14:48.141Z,7.10
2019-03-06T00:17:16.914Z,7.10
2019-03-06T00:19:45.685Z,7.00
2019-03-06T00:22:14.454Z,7.10
2019-03-06T00:24:43.805Z,7.10
2019-03-06T00:27:12.575Z,7.00
2019-03-06T00:29:42.097Z,7.00
2019-03-06T00:32:10.936Z,7.00
2019-03-06T00:34:39.776Z,7.10
2019-03-06T00:37:08.568Z,7.00
2019-03-06T00:39:44.774Z,7.00
2019-03-06T00:42:13.533Z,7.00
2019-03-06T00:44:42.305Z,7.10
2019-03-06T00:47:11.075Z,7.10
2019-03-06T00:49:40.214Z,7.10
2019-03-06T00:52:08.987Z,7.10
2019-03-06T00:54:37.743Z,7.10
2019-03-06T00:57:06.499Z,7.10
2019-03-06T00:59:35.281Z,7.10
2019-03-06T01:02:04.731Z,7.10
2019-03-06T01:04:33.491Z,7.20
2019-03-06T01:07:02.886Z,7.20
2019-03-06T01:09:31.664Z,7.20
2019-03-06T01:12:00.700Z,7.30
2019-03-06T01:14:29.547Z,7.30
2019-03-06T01:16:58.323Z,7.30
2019-03-06T01:19:27.169Z,7.30
2019-03-06T01:21:55.991Z,7.20
2019-03-06T01:24:24.771Z,7.30
2019-03-06T01:26:54.453Z,7.30
2019-03-06T01:29:23.252Z,7.30
2019-03-06T01:31:52.166Z,7.30
2019-03-06T01:34:42.486Z,7.30
2019-03-06T01:37:17.412Z,7.30
2019-03-06T01:40:04.891Z,7.30
2019-03-06T01:42:56.257Z,7.40
2019-03-06T01:45:25.170Z,7.30
2019-03-06T01:47:53.922Z,7.30
2019-03-06T01:50:22.696Z,7.20
2019-03-06T01:52:51.537Z,7.20
2019-03-06T01:55:20.562Z,7.20
2019-03-06T01:57:49.360Z,7.10
2019-03-06T02:00:19.120Z,7.10
2019-03-06T02:02:47.967Z,7.20
2019-03-06T02:05:17.320Z,7.10
2019-03-06T02:07:46.148Z,7.10
2019-03-06T02:10:15.903Z,7.10
2019-03-06T02:12:44.916Z,7.10
2019-03-06T02:15:15.278Z,7.10
2019-03-06T02:17:44.443Z,7.20
2019-03-06T02:20:15.423Z,7.20
2019-03-06T02:22:44.586Z,7.20
2019-03-06T02:25:14.306Z,7.30
2019-03-06T02:27:43.483Z,7.30
2019-03-06T02:30:17.628Z,7.30
2019-03-06T02:32:46.924Z,7.40
2019-03-06T02:35:15.826Z,7.30
2019-03-06T02:37:44.727Z,7.30
2019-03-06T02:40:14.358Z,7.30
2019-03-06T02:42:43.106Z,7.30
2019-03-06T02:45:13.517Z,7.20
2019-03-06T02:47:42.688Z,7.20
2019-03-06T02:50:12.447Z,7.20
2019-03-06T02:52:41.831Z,7.30
2019-03-06T02:55:10.866Z,7.20
2019-03-06T02:57:42.984Z,7.20
2019-03-06T03:00:40.124Z,7.20
2019-03-06T03:03:31.036Z,7.10
2019-03-06T03:06:03.291Z,7.00
2019-03-06T03:08:32.333Z,7.00
2019-03-06T03:11:01.487Z,6.90
2019-03-06T03:13:30.586Z,6.90
2019-03-06T03:15:59.395Z,6.90
2019-03-06T03:18:28.355Z,6.90
2019-03-06T03:20:57.474Z,6.90
2019-03-06T03:23:26.264Z,6.90
2019-03-06T03:25:55.080Z,6.90
2019-03-06T03:28:23.864Z,6.90
2019-03-06T03:30:53.092Z,6.90
2019-03-06T03:33:21.935Z,6.90
2019-03-06T03:35:50.770Z,7.00
2019-03-06T03:38:19.638Z,7.00
2019-03-06T03:40:48.379Z,7.00
2019-03-06T03:43:17.154Z,7.00
2019-03-06T03:45:45.975Z,7.10
2019-03-06T03:48:15.085Z,7.10
2019-03-06T03:50:43.941Z,7.10
2019-03-06T03:53:12.781Z,7.10
2019-03-06T03:55:41.527Z,7.20
2019-03-06T03:58:10.321Z,7.20
2019-03-06T04:00:39.447Z,7.30
2019-03-06T04:03:08.290Z,7.30
2019-03-06T04:05:37.304Z,7.30
2019-03-06T04:08:06.472Z,7.30
2019-03-06T04:10:35.359Z,7.40
2019-03-06T04:13:04.691Z,7.30
2019-03-06T04:15:33.522Z,7.30
2019-03-06T04:18:02.355Z,7.20
2019-03-06T04:20:31.446Z,7.20
2019-03-06T04:23:00.647Z,7.20
2019-03-06T04:25:29.476Z,7.30
2019-03-06T04:27:58.525Z,7.30
2019-03-06T04:30:27.345Z,7.20
2019-03-06T04:32:56.087Z,7.10
2019-03-06T04:35:24.848Z,7.00
2019-03-06T04:37:53.693Z,6.90
2019-03-06T04:40:22.740Z,7.00
2019-03-06T04:42:51.517Z,7.10
2019-03-06T04:45:20.336Z,7.20
2019-03-06T04:47:49.397Z,7.20
2019-03-06T04:50:18.224Z,7.20
2019-03-06T04:52:46.978Z,7.10
2019-03-06T04:55:16.085Z,7.10
2019-03-06T04:57:44.859Z,7.00
2019-03-06T05:00:14.215Z,6.90
2019-03-06T05:02:43.140Z,7.00
2019-03-06T05:05:12.129Z,6.80
2019-03-06T05:07:40.962Z,6.90
2019-03-06T05:10:09.799Z,6.90
2019-03-06T05:12:38.567Z,7.00
2019-03-06T05:15:08.524Z,7.10
2019-03-06T05:17:59.990Z,7.10
2019-03-06T05:20:29.189Z,7.20
2019-03-06T05:22:58.322Z,7.20
2019-03-06T05:25:27.266Z,7.10
2019-03-06T05:27:56.094Z,7.10
2019-03-06T05:30:26.782Z,7.20
2019-03-06T05:32:56.162Z,7.20
2019-03-06T05:35:58.414Z,7.10
2019-03-06T05:38:32.571Z,7.10
2019-03-06T05:41:01.319Z,7.10
2019-03-06T05:43:30.732Z,7.10
2019-03-06T05:45:59.483Z,7.10
2019-03-06T05:48:28.555Z,7.10
2019-03-06T05:50:57.381Z,7.10
2019-03-06T05:53:26.166Z,7.20
2019-03-06T05:55:55.312Z,7.20
2019-03-06T05:58:24.411Z,7.30
2019-03-06T06:00:53.420Z,7.30
2019-03-06T06:03:22.550Z,7.20
2019-03-06T06:05:51.611Z,7.20
2019-03-06T06:08:20.648Z,7.20
2019-03-06T06:10:49.804Z,7.20
2019-03-06T06:13:19.301Z,7.20
2019-03-06T06:15:48.119Z,7.20
2019-03-06T06:18:17.790Z,7.20
2019-03-06T06:20:48.616Z,7.20
2019-03-06T06:23:35.219Z,7.30
2019-03-06T06:26:04.074Z,7.40
2019-03-06T06:28:32.860Z,7.40
2019-03-06T06:31:01.927Z,7.40
2019-03-06T06:33:30.770Z,7.50
2019-03-06T06:35:59.618Z,7.60
2019-03-06T06:38:28.390Z,7.60
2019-03-06T06:40:57.489Z,7.70
2019-03-06T06:43:26.881Z,7.70
2019-03-06T06:45:56.078Z,7.60
2019-03-06T06:48:26.072Z,7.50
2019-03-06T06:51:16.230Z,7.40
2019-03-06T06:53:55.758Z,7.20
2019-03-06T06:56:52.921Z,7.30
2019-03-06T07:00:05.918Z,7.20
2019-03-06T07:03:15.444Z,7.30
2019-03-06T07:05:49.056Z,7.20
2019-03-06T07:08:35.602Z,7.10
2019-03-06T07:11:19.585Z,7.20
2019-03-06T07:14:13.502Z,7.10
2019-03-06T07:17:01.600Z,7.10
2019-03-06T07:19:37.758Z,7.10
2019-03-06T07:22:15.246Z,7.10
2019-03-06T07:25:21.775Z,7.20
2019-03-06T07:28:00.504Z,7.20
2019-03-06T07:30:47.642Z,7.40
2019-03-06T07:33:38.403Z,7.40
2019-03-06T07:36:39.198Z,7.40
2019-03-06T07:39:25.061Z,7.60
2019-03-06T07:42:11.998Z,7.70
2019-03-06T07:45:01.474Z,7.70
2019-03-06T07:47:38.018Z,7.70
2019-03-06T07:50:30.405Z,7.70
2019-03-06T07:54:02.438Z,7.80
2019-03-06T07:56:35.053Z,7.90
2019-03-06T07:59:04.379Z,7.80
2019-03-06T08:01:36.373Z,7.90
2019-03-06T08:04:15.983Z,8.00
2019-03-06T08:06:51.259Z,8.10
2019-03-06T08:09:20.855Z,8.20
2019-03-06T08:12:11.825Z,8.20
2019-03-06T08:15:00.443Z,8.30
2019-03-06T08:17:53.492Z,8.40
2019-03-06T08:20:59.833Z,8.50
2019-03-06T08:23:35.101Z,8.40
2019-03-06T08:26:04.649Z,8.50
2019-03-06T08:28:34.124Z,8.60
2019-03-06T08:31:21.615Z,8.70
2019-03-06T08:33:50.817Z,8.70
2019-03-06T08:36:19.693Z,8.90
2019-03-06T08:38:48.826Z,9.00
2019-03-06T08:41:17.899Z,9.10
2019-03-06T08:43:46.880Z,9.20
2019-03-06T08:46:34.851Z,9.20
2019-03-06T08:49:35.100Z,9.40
2019-03-06T08:52:18.815Z,9.60
2019-03-06T08:54:53.415Z,9.70
2019-03-06T08:57:35.555Z,9.80
2019-03-06T09:00:25.056Z,10.00
2019-03-06T09:03:17.606Z,10.20
2019-03-06T09:06:05.909Z,10.40
2019-03-06T09:08:49.302Z,10.50
2019-03-06T09:11:46.467Z,10.60
2019-03-06T09:14:26.747Z,10.60
2019-03-06T09:17:05.463Z,10.70
2019-03-06T09:19:52.917Z,10.70
2019-03-06T09:22:30.188Z,10.70
2019-03-06T09:25:08.039Z,10.70
2019-03-06T09:27:57.921Z,10.80
2019-03-06T09:30:50.877Z,10.90
2019-03-06T09:33:27.792Z,11.00
2019-03-06T09:36:05.597Z,11.10
2019-03-06T09:38:46.371Z,11.20
2019-03-06T09:41:50.072Z,11.30
2019-03-06T09:44:32.593Z,11.40
2019-03-06T09:47:16.676Z,11.50
2019-03-06T09:49:53.792Z,11.60
2019-03-06T09:52:35.303Z,11.80
2019-03-06T09:55:12.065Z,11.90
2019-03-06T09:58:18.395Z,12.00
2019-03-06T10:01:03.058Z,12.10
2019-03-06T10:03:50.011Z,12.20
2019-03-06T10:06:30.571Z,12.50
2019-03-06T10:09:16.358Z,12.50
2019-03-06T10:12:02.558Z,12.50
2019-03-06T10:14:53.567Z,12.50
2019-03-06T10:17:30.451Z,12.60
2019-03-06T10:20:03.544Z,12.90
2019-03-06T10:22:32.384Z,13.00
2019-03-06T10:25:01.446Z,13.20
2019-03-06T10:27:30.554Z,13.40
2019-03-06T10:29:59.499Z,13.50
2019-03-06T10:32:28.614Z,13.60
2019-03-06T10:34:57.840Z,13.50
2019-03-06T10:37:26.720Z,13.50
2019-03-06T10:39:55.577Z,13.40
2019-03-06T10:42:24.528Z,13.60
2019-03-06T10:44:53.392Z,13.60
2019-03-06T10:47:22.674Z,13.50
2019-03-06T10:49:51.856Z,13.50
2019-03-06T10:52:21.563Z,13.40
2019-03-06T10:54:50.402Z,13.40
2019-03-06T10:57:19.768Z,13.10
2019-03-06T10:59:48.649Z,13.20
2019-03-06T11:02:17.559Z,13.30
2019-03-06T11:04:51.061Z,13.50
2019-03-06T11:07:20.456Z,13.50
2019-03-06T11:09:49.371Z,13.50
2019-03-06T11:12:18.310Z,13.50
2019-03-06T11:14:47.625Z,13.50
2019-03-06T11:17:17.134Z,13.40
2019-03-06T11:19:46.441Z,13.50
2019-03-06T11:22:15.345Z,13.40
2019-03-06T11:24:44.622Z,13.40
2019-03-06T11:27:13.808Z,13.60
2019-03-06T11:29:42.799Z,13.60
2019-03-06T11:32:11.982Z,13.60
2019-03-06T11:34:41.196Z,13.60
2019-03-06T11:37:10.480Z,13.70
2019-03-06T11:39:41.360Z,13.70
2019-03-06T11:42:10.370Z,13.80
2019-03-06T11:44:39.760Z,13.80
2019-03-06T11:47:08.933Z,13.60
2019-03-06T11:49:38.007Z,13.50
2019-03-06T11:52:07.195Z,13.50
2019-03-06T11:54:35.985Z,13.50
2019-03-06T11:57:06.000Z,13.40
2019-03-06T11:59:35.238Z,13.40
2019-03-06T12:02:04.343Z,13.40
2019-03-06T12:04:33.727Z,13.50
2019-03-06T12:07:02.615Z,13.60
2019-03-06T12:09:33.114Z,13.70
2019-03-06T12:12:03.342Z,13.70
2019-03-06T12:14:32.208Z,13.70
2019-03-06T12:17:01.918Z,13.60
2019-03-06T12:19:30.815Z,13.60
2019-03-06T12:22:00.517Z,13.80
2019-03-06T12:24:30.062Z,13.70
2019-03-06T12:26:58.921Z,13.70
2019-03-06T12:29:28.085Z,13.70
2019-03-06T12:31:57.781Z,13.90
2019-03-06T12:34:27.481Z,14.00
2019-03-06T12:36:57.289Z,14.00
2019-03-06T12:39:26.339Z,14.20
2019-03-06T12:41:55.576Z,14.20
2019-03-06T12:44:24.582Z,14.20
2019-03-06T12:46:55.323Z,14.30
2019-03-06T12:49:26.409Z,14.40
2019-03-06T12:51:55.547Z,14.30
2019-03-06T12:54:24.390Z,14.30
2019-03-06T12:56:53.314Z,14.40
2019-03-06T12:59:22.162Z,14.40
2019-03-06T13:01:51.121Z,14.40
2019-03-06T13:04:20.756Z,14.40
2019-03-06T13:06:50.254Z,14.50
2019-03-06T13:09:20.288Z,14.40
2019-03-06T13:11:50.142Z,14.60
2019-03-06T13:14:19.201Z,14.70
2019-03-06T13:16:48.643Z,14.70
2019-03-06T13:19:17.479Z,14.70
2019-03-06T13:21:46.655Z,14.70
2019-03-06T13:24:15.875Z,14.70
2019-03-06T13:26:44.777Z,14.80
2019-03-06T13:29:13.688Z,14.90
2019-03-06T13:31:42.543Z,14.90
2019-03-06T13:34:17.036Z,14.80
2019-03-06T13:36:46.417Z,14.80
2019-03-06T13:39:17.117Z,14.70
2019-03-06T13:41:46.910Z,14.70
2019-03-06T13:44:15.771Z,14.60
2019-03-06T13:46:45.096Z,14.70
2019-03-06T13:49:14.023Z,14.70
2019-03-06T13:51:43.354Z,14.70
2019-03-06T13:54:12.667Z,14.80
2019-03-06T13:56:41.796Z,14.80
2019-03-06T13:59:11.283Z,14.80
2019-03-06T14:01:40.765Z,14.80
2019-03-06T14:04:09.849Z,14.80
2019-03-06T14:06:38.796Z,14.90
2019-03-06T14:09:09.446Z,14.90
2019-03-06T14:11:38.949Z,14.80
2019-03-06T14:14:07.703Z,14.90
2019-03-06T14:16:36.903Z,14.80
2019-03-06T14:19:06.029Z,14.90
2019-03-06T14:21:35.331Z,14.90
2019-03-06T14:24:05.086Z,14.80
2019-03-06T14:26:34.258Z,14.70
2019-03-06T14:29:03.486Z,14.60
2019-03-06T14:31:32.400Z,14.60
2019-03-06T14:34:01.852Z,14.60
2019-03-06T14:36:31.575Z,14.60
2019-03-06T14:39:00.815Z,14.60
2019-03-06T14:41:30.689Z,14.70
2019-03-06T14:44:02.591Z,14.80
2019-03-06T14:46:31.725Z,14.80
2019-03-06T14:49:00.576Z,14.80
2019-03-06T14:51:30.139Z,14.80
2019-03-06T14:53:59.056Z,14.90
2019-03-06T14:56:28.541Z,15.00
2019-03-06T14:58:57.659Z,15.00
2019-03-06T15:01:26.834Z,15.00
2019-03-06T15:03:56.276Z,14.90
2019-03-06T15:06:25.271Z,14.80
2019-03-06T15:08:54.526Z,14.80
2019-03-06T15:11:32.789Z,14.80
2019-03-06T15:13:54.752Z,14.90
2019-03-06T15:16:23.583Z,14.80
2019-03-06T15:18:52.589Z,14.80
2019-03-06T15:21:21.421Z,14.70
2019-03-06T15:23:50.638Z,14.70
2019-03-06T15:26:19.494Z,14.70
2019-03-06T15:28:48.407Z,14.60
2019-03-06T15:31:17.725Z,14.40
2019-03-06T15:33:51.009Z,14.40
2019-03-06T15:36:20.191Z,14.50
2019-03-06T15:38:49.347Z,14.50
2019-03-06T15:41:18.499Z,14.40
2019-03-06T15:43:47.631Z,14.40
2019-03-06T15:46:17.366Z,14.40
2019-03-06T15:48:46.604Z,14.40
2019-03-06T15:51:16.108Z,14.40
2019-03-06T15:53:45.314Z,14.40
2019-03-06T15:56:14.296Z,14.50
2019-03-06T15:58:43.798Z,14.40
2019-03-06T16:01:13.688Z,14.50
2019-03-06T16:03:43.010Z,14.50
2019-03-06T16:06:20.154Z,14.50
2019-03-06T16:08:42.669Z,14.50
2019-03-06T16:11:12.656Z,14.30
2019-03-06T16:13:41.598Z,14.30
2019-03-06T16:16:10.642Z,14.30
2019-03-06T16:18:39.493Z,14.30
2019-03-06T16:21:09.589Z,14.40
2019-03-06T16:23:38.739Z,14.40
2019-03-06T16:26:07.679Z,14.30
2019-03-06T16:28:36.966Z,14.40
2019-03-06T16:31:06.322Z,14.40
2019-03-06T16:33:35.177Z,14.40
2019-03-06T16:36:04.433Z,14.40
2019-03-06T16:38:33.646Z,14.40
2019-03-06T16:41:02.492Z,14.40
2019-03-06T16:43:31.643Z,14.40
2019-03-06T16:46:00.479Z,14.40
2019-03-06T16:48:30.315Z,14.40
2019-03-06T16:50:59.403Z,14.30
2019-03-06T16:53:28.333Z,14.40
2019-03-06T16:55:57.488Z,14.40
2019-03-06T16:58:26.552Z,14.30
2019-03-06T17:00:55.483Z,14.40
2019-03-06T17:03:24.567Z,14.40
2019-03-06T17:05:54.659Z,14.40
2019-03-06T17:08:23.715Z,14.40
2019-03-06T17:10:53.127Z,14.40
2019-03-06T17:13:22.580Z,14.40
2019-03-06T17:15:52.093Z,14.40
2019-03-06T17:18:21.018Z,14.40
2019-03-06T17:20:50.307Z,14.50
2019-03-06T17:23:19.699Z,14.40
2019-03-06T17:25:49.306Z,14.30
2019-03-06T17:28:18.259Z,14.40
2019-03-06T17:30:47.785Z,14.30
2019-03-06T17:33:17.084Z,14.30
2019-03-06T17:35:46.028Z,14.20
2019-03-06T17:38:15.255Z,14.30
2019-03-06T17:40:44.709Z,14.30
2019-03-06T17:43:14.595Z,14.20
2019-03-06T17:45:44.544Z,14.20
2019-03-06T17:48:13.944Z,14.30
2019-03-06T17:50:42.956Z,14.40
2019-03-06T17:53:12.206Z,14.30
2019-03-06T17:55:41.898Z,14.40
2019-03-06T17:58:10.885Z,14.40
2019-03-06T18:00:43.660Z,14.40
2019-03-06T18:03:14.793Z,14.40
2019-03-06T18:05:43.936Z,14.50
2019-03-06T18:08:13.044Z,14.40
2019-03-06T18:10:42.587Z,14.50
2019-03-06T18:13:12.467Z,14.50
2019-03-06T18:15:41.384Z,14.40
2019-03-06T18:18:10.304Z,14.30
2019-03-06T18:20:39.147Z,14.40
2019-03-06T18:23:08.764Z,14.40
2019-03-06T18:25:38.007Z,14.40
2019-03-06T18:28:07.789Z,14.30
2019-03-06T18:30:37.036Z,14.30
2019-03-06T18:33:06.009Z,14.20
2019-03-06T18:35:34.924Z,14.20
2019-03-06T18:38:03.875Z,14.20
2019-03-06T18:40:33.055Z,14.10
2019-03-06T18:43:02.435Z,14.00
2019-03-06T18:45:31.556Z,14.00
2019-03-06T18:48:00.468Z,14.00
2019-03-06T18:50:29.329Z,13.90
2019-03-06T18:52:59.205Z,13.90
2019-03-06T18:55:28.619Z,13.90
2019-03-06T18:57:58.106Z,14.00
2019-03-06T19:00:27.423Z,13.90
2019-03-06T19:02:56.415Z,13.90
2019-03-06T19:05:25.802Z,14.00
2019-03-06T19:07:54.692Z,14.00
2019-03-06T19:10:24.022Z,14.00
2019-03-06T19:12:53.561Z,14.20
2019-03-06T19:15:22.471Z,14.20
2019-03-06T19:17:51.919Z,14.20
2019-03-06T19:20:21.744Z,14.10
2019-03-06T19:22:51.251Z,14.10
2019-03-06T19:25:20.531Z,14.20
2019-03-06T19:27:49.656Z,14.10
2019-03-06T19:30:20.050Z,14.10
2019-03-06T19:32:49.433Z,14.20
2019-03-06T19:35:19.586Z,14.10
2019-03-06T19:37:48.464Z,14.20
2019-03-06T19:40:18.335Z,14.20
2019-03-06T19:42:47.744Z,14.30
2019-03-06T19:45:17.998Z,14.30
2019-03-06T19:47:46.850Z,14.30
2019-03-06T19:50:20.180Z,14.30
2019-03-06T19:52:49.686Z,14.30
2019-03-06T19:55:19.135Z,14.30
2019-03-06T19:57:50.352Z,14.20
2019-03-06T20:00:20.259Z,14.10
2019-03-06T20:02:49.844Z,14.20
2019-03-06T20:05:19.353Z,14.20
2019-03-06T20:07:48.544Z,14.20
2019-03-06T20:10:17.777Z,14.20
2019-03-06T20:12:46.662Z,14.20
2019-03-06T20:15:17.081Z,14.20
2019-03-06T20:17:46.473Z,14.20
2019-03-06T20:20:17.035Z,14.30
2019-03-06T20:22:46.274Z,14.30
2019-03-06T20:25:15.915Z,14.30
2019-03-06T20:27:44.909Z,14.20
2019-03-06T20:30:14.873Z,14.20
2019-03-06T20:32:44.388Z,14.30
2019-03-06T20:35:14.423Z,14.30
2019-03-06T20:37:43.274Z,14.30
2019-03-06T20:40:12.271Z,14.30
2019-03-06T20:42:41.696Z,14.30
2019-03-06T20:45:10.693Z,14.30
2019-03-06T20:47:39.788Z,14.40
2019-03-06T20:50:09.198Z,14.30
2019-03-06T20:52:38.114Z,14.40
2019-03-06T20:55:08.011Z,14.40
2019-03-06T20:57:36.938Z,14.40
2019-03-06T21:00:06.923Z,14.40
2019-03-06T21:02:36.363Z,14.40
2019-03-06T21:05:05.855Z,14.40
2019-03-06T21:07:44.597Z,14.30
2019-03-06T21:10:05.682Z,14.40
2019-03-06T21:12:34.545Z,14.30
2019-03-06T21:15:03.513Z,14.40
2019-03-06T21:17:32.761Z,14.30
2019-03-06T21:20:03.109Z,14.30
2019-03-06T21:22:31.945Z,14.40
2019-03-06T21:25:00.796Z,14.50
2019-03-06T21:27:29.937Z,14.40
2019-03-06T21:29:59.113Z,14.40
2019-03-06T21:32:28.074Z,14.40
2019-03-06T21:34:57.175Z,14.40
2019-03-06T21:37:26.050Z,14.40
2019-03-06T21:39:56.497Z,14.40
2019-03-06T21:42:25.448Z,14.50
2019-03-06T21:44:54.299Z,14.40
2019-03-06T21:47:23.501Z,14.50
2019-03-06T21:49:52.356Z,14.50
2019-03-06T21:52:23.023Z,14.50
2019-03-06T21:54:52.017Z,14.50
2019-03-06T21:57:20.844Z,14.50
2019-03-06T21:59:49.727Z,14.50
2019-03-06T22:02:18.886Z,14.50
2019-03-06T22:04:47.733Z,14.50
2019-03-06T22:07:16.587Z,14.50
2019-03-06T22:09:45.763Z,14.50
2019-03-06T22:12:14.530Z,14.60
2019-03-06T22:14:44.055Z,14.60
2019-03-06T22:17:13.164Z,14.70
2019-03-06T22:19:42.365Z,14.60
2019-03-06T22:22:11.233Z,14.60
2019-03-06T22:24:40.070Z,14.70
2019-03-06T22:27:08.938Z,14.50
2019-03-06T22:29:37.787Z,14.40
2019-03-06T22:32:07.328Z,14.30
2019-03-06T22:34:36.322Z,14.30
2019-03-06T22:37:05.162Z,14.20
2019-03-06T22:39:34.022Z,14.20
2019-03-06T22:42:02.870Z,14.30
2019-03-06T22:44:31.748Z,14.30
2019-03-06T22:47:00.567Z,14.40
2019-03-06T22:49:29.412Z,14.50
2019-03-06T22:51:58.171Z,14.50
2019-03-06T22:54:27.009Z,14.50
2019-03-06T22:56:55.851Z,14.40
2019-03-06T22:59:24.690Z,14.30
2019-03-06T23:01:53.891Z,14.40
2019-03-06T23:04:22.804Z,14.50
2019-03-06T23:06:51.649Z,14.50
2019-03-06T23:09:20.963Z,14.50
2019-03-06T23:11:50.190Z,14.50
2019-03-06T23:14:19.053Z,14.50
2019-03-06T23:16:48.190Z,14.40
2019-03-06T23:19:17.323Z,14.60
2019-03-06T23:21:46.461Z,14.60
2019-03-06T23:24:15.317Z,14.60
2019-03-06T23:26:44.170Z,14.70
2019-03-06T23:29:13.024Z,14.70
2019-03-06T23:31:42.154Z,14.60
2019-03-06T23:34:10.979Z,14.60
2019-03-06T23:36:40.155Z,14.70
2019-03-06T23:39:12.801Z,14.60
2019-03-06T23:41:41.880Z,14.60
2019-03-06T23:44:11.085Z,14.70
2019-03-06T23:46:40.182Z,14.60
2019-03-06T23:49:08.989Z,14.70
2019-03-06T23:51:44.602Z,14.60
2019-03-06T23:54:13.703Z,14.60
2019-03-06T23:56:42.849Z,14.70
2019-03-06T23:59:12.019Z,14.80
